Time;durP1;ratioP1;P1;durP2;ratioP2;P2;SDS_P1;SDS_P2;PMS_P1;PMS_P2;Temp;Humidity;BMP_temperature;BMP_pressure;BME280_temperature;BME280_humidity;BME280_pressure;Samples;Min_cycle;Max_cycle;Signal;HPM_P1;HPM_P2
2024/01/11 00:00:14;;;;;;;;;62.67;48.00;;;;;1.48;56.07;102281.25;4976965;28;46097;-60
2024/01/11 00:02:40;;;;;;;;;64.33;47.67;;;;;1.64;55.16;102313.22;4976643;28;45675;-61
2024/01/11 00:05:06;;;;;;;;;57.67;44.00;;;;;1.69;55.32;102319.56;4978147;28;45424;-60
2024/01/11 00:07:32;;;;;;;;;60.00;43.33;;;;;1.70;55.81;102313.59;4978199;28;45798;-61
2024/01/11 00:09:58;;;;;;;;;56.00;46.00;;;;;1.68;55.13;102310.94;4977995;28;45438;-62
2024/01/11 00:12:23;;;;;;;;;56.00;44.33;;;;;1.56;56.40;102304.97;4976736;28;45806;-61
2024/01/11 00:14:49;;;;;;;;;63.00;49.00;;;;;1.62;56.29;102315.69;4974041;28;45415;-61
2024/01/11 00:17:15;;;;;;;;;66.67;48.00;;;;;1.64;55.44;102313.22;4978478;28;45422;-59
2024/01/11 00:19:41;;;;;;;;;61.00;46.00;;;;;1.57;55.71;102298.13;4979425;28;45512;-64
2024/01/11 00:22:06;;;;;;;;;65.33;49.33;;;;;1.64;55.18;102308.06;4977926;28;45331;-60
2024/01/11 00:24:32;;;;;;;;;62.00;47.33;;;;;1.59;55.30;102292.28;4976843;28;45319;-67
2024/01/11 00:26:57;;;;;;;;;63.67;48.67;;;;;1.72;55.57;102318.88;4978144;28;45489;-64
2024/01/11 00:29:23;;;;;;;;;66.00;48.33;;;;;1.70;54.82;102316.19;4978122;28;46080;-63
2024/01/11 00:31:49;;;;;;;;;58.00;45.67;;;;;1.72;54.90;102313.72;4977874;28;45308;-61
2024/01/11 00:34:14;;;;;;;;;61.00;47.00;;;;;1.77;55.12;102315.78;4976790;28;45694;-62
2024/01/11 00:36:40;;;;;;;;;62.00;48.00;;;;;1.78;54.52;102324.41;4978045;28;45430;-66
2024/01/11 00:39:05;;;;;;;;;62.67;49.33;;;;;1.77;54.97;102327.81;4976847;28;47707;-63
2024/01/11 00:41:31;;;;;;;;;63.00;48.00;;;;;1.70;55.66;102329.09;4960263;28;45503;-63
2024/01/11 00:43:56;;;;;;;;;62.00;48.67;;;;;1.74;54.49;102333.66;4977655;28;45386;-62
2024/01/11 00:46:22;;;;;;;;;66.33;48.00;;;;;1.69;55.11;102330.78;4977591;28;45450;-60
2024/01/11 00:48:47;;;;;;;;;66.00;48.67;;;;;1.68;55.07;102333.25;4976113;28;46772;-60
2024/01/11 00:51:13;;;;;;;;;67.00;51.33;;;;;1.68;55.15;102343.59;4977656;28;45430;-61
2024/01/11 00:53:38;;;;;;;;;67.00;50.00;;;;;1.60;55.03;102337.94;4978326;28;45493;-61
2024/01/11 00:56:04;;;;;;;;;70.67;52.33;;;;;1.54;54.83;102339.25;4977712;28;45408;-61
2024/01/11 00:58:30;;;;;;;;;62.33;48.67;;;;;1.37;55.80;102325.25;4977306;28;46401;-60
2024/01/11 01:00:55;;;;;;;;;67.67;48.67;;;;;1.43;54.86;102336.88;4977589;28;45308;-62
2024/01/11 01:03:21;;;;;;;;;67.33;48.33;;;;;1.45;55.84;102345.63;4977220;28;46241;-62
2024/01/11 01:05:47;;;;;;;;;58.33;46.67;;;;;1.47;55.42;102350.84;4993799;28;45617;-60
2024/01/11 01:08:14;;;;;;;;;62.33;48.33;;;;;1.45;55.46;102348.19;4978706;28;45449;-60
2024/01/11 01:10:40;;;;;;;;;64.33;49.00;;;;;1.40;55.78;102338.34;4977271;28;45477;-60
2024/01/11 01:13:05;;;;;;;;;66.33;49.33;;;;;1.43;55.11;102352.38;4977963;28;45454;-61
2024/01/11 01:15:31;;;;;;;;;69.00;49.33;;;;;1.41;55.85;102350.47;4978137;28;45260;-61
2024/01/11 01:17:56;;;;;;;;;64.33;46.00;;;;;1.32;56.21;102335.28;4975513;28;45982;-60
2024/01/11 01:20:22;;;;;;;;;66.33;49.00;;;;;1.44;55.40;102341.22;4977307;28;45593;-61
2024/01/11 01:22:49;;;;;;;;;60.67;47.00;;;;;1.15;56.01;102292.00;4976383;28;45556;-62
2024/01/11 01:25:14;;;;;;;;;58.33;47.00;;;;;1.29;55.85;102322.19;4978670;28;45412;-59
2024/01/11 01:27:40;;;;;;;;;60.33;48.00;;;;;1.45;55.72;102345.63;4977798;28;46855;-62
2024/01/11 01:30:06;;;;;;;;;57.33;43.67;;;;;1.49;55.32;102351.84;4977040;28;45450;-63
2024/01/11 01:32:32;;;;;;;;;66.00;47.00;;;;;1.50;55.46;102364.00;4976719;28;45470;-60
2024/01/11 01:34:57;;;;;;;;;57.33;45.00;;;;;1.42;55.62;102352.25;4977358;28;45415;-60
2024/01/11 01:37:23;;;;;;;;;55.67;42.00;;;;;1.53;55.87;102356.44;4976874;28;46041;-61
2024/01/11 01:39:48;;;;;;;;;62.00;48.33;;;;;1.43;55.67;102360.09;4977021;28;45499;-61
2024/01/11 01:42:14;;;;;;;;;58.00;46.00;;;;;1.43;56.42;102365.28;4975788;28;45422;-60
2024/01/11 01:44:41;;;;;;;;;68.00;50.33;;;;;1.39;56.06;102364.97;4976472;28;45505;-60
2024/01/11 01:47:09;;;;;;;;;62.67;49.67;;;;;1.35;55.45;102373.31;4976588;28;45605;-60
2024/01/11 01:49:35;;;;;;;;;62.00;48.33;;;;;1.32;55.94;102378.28;4977138;28;45328;-60
2024/01/11 01:52:03;;;;;;;;;63.33;46.67;;;;;1.31;56.33;102381.66;4976910;28;45478;-62
2024/01/11 01:54:29;;;;;;;;;62.33;49.00;;;;;1.25;56.18;102379.56;4975275;28;45578;-61
2024/01/11 01:56:55;;;;;;;;;64.00;49.00;;;;;1.34;55.44;102394.75;4976480;28;45447;-60
2024/01/11 01:59:24;;;;;;;;;66.67;50.33;;;;;1.34;56.67;102392.19;4976552;28;45437;-60
2024/01/11 02:01:49;;;;;;;;;68.33;48.33;;;;;1.29;56.20;102393.56;4977113;28;45434;-60
2024/01/11 02:04:15;;;;;;;;;67.67;49.67;;;;;1.35;55.69;102401.69;4977589;28;45484;-60
2024/01/11 02:06:43;;;;;;;;;69.33;52.67;;;;;1.37;55.75;102402.69;4974686;28;46631;-60
2024/01/11 02:09:11;;;;;;;;;67.00;48.33;;;;;1.36;55.90;102403.50;4955656;28;45478;-61
2024/01/11 02:11:37;;;;;;;;;63.67;49.00;;;;;1.31;56.34;102405.78;4972373;28;45426;-61
2024/01/11 02:14:04;;;;;;;;;60.67;49.67;;;;;1.27;55.54;102406.38;4976220;28;46072;-63
2024/01/11 02:16:30;;;;;;;;;62.33;49.00;;;;;1.24;56.27;102411.34;4959381;28;46936;-65
2024/01/11 02:18:55;;;;;;;;;62.67;47.67;;;;;1.24;56.04;102407.06;4975395;28;45438;-62
2024/01/11 02:21:23;;;;;;;;;67.67;48.67;;;;;1.30;56.48;102422.03;4976742;28;45501;-62
2024/01/11 02:24:04;;;;;;;;;58.67;45.33;;;;;1.27;56.57;102414.09;4976579;28;45563;-63
2024/01/11 02:26:30;;;;;;;;;64.00;47.33;;;;;1.26;56.07;102407.16;4976254;28;46106;-61
2024/01/11 02:28:56;;;;;;;;;63.00;46.67;;;;;1.33;56.29;102406.78;4974710;28;45481;-60
2024/01/11 02:31:22;;;;;;;;;61.67;43.67;;;;;1.36;55.77;102404.41;4975080;28;45492;-59
2024/01/11 02:33:48;;;;;;;;;60.67;48.00;;;;;1.35;55.81;102404.28;4975700;28;46132;-60
2024/01/11 02:36:14;;;;;;;;;61.33;47.33;;;;;1.47;55.70;102431.81;4975820;28;45384;-60
2024/01/11 02:38:42;;;;;;;;;68.00;50.00;;;;;1.42;63.28;102422.84;4990999;28;45515;-61
2024/01/11 02:41:08;;;;;;;;;55.00;42.00;;;;;1.60;56.80;102430.03;4975956;28;45549;-61
2024/01/11 02:43:35;;;;;;;;;62.67;45.33;;;;;1.62;56.70;102433.63;4976142;28;45489;-60
2024/01/11 02:46:02;;;;;;;;;62.00;46.67;;;;;1.55;56.00;102441.75;4974939;28;46425;-62
2024/01/11 02:48:29;;;;;;;;;65.33;49.00;;;;;1.44;56.17;102435.88;4977841;28;45447;-61
2024/01/11 02:50:56;;;;;;;;;73.00;51.33;;;;;1.42;55.50;102435.75;4979140;28;45390;-63
2024/01/11 02:53:22;;;;;;;;;68.67;46.33;;;;;1.28;56.08;102431.38;4979555;28;45391;-60
2024/01/11 02:55:47;;;;;;;;;70.67;51.33;;;;;1.21;55.70;102416.25;4979031;28;45478;-60
2024/01/11 02:58:13;;;;;;;;;63.33;47.67;;;;;1.25;56.39;102431.19;4980409;28;45347;-63
2024/01/11 03:00:38;;;;;;;;;69.33;50.33;;;;;1.15;56.48;102416.75;4979531;28;45563;-60
2024/01/11 03:03:04;;;;;;;;;69.67;47.67;;;;;1.13;57.00;102417.44;4979271;28;45628;-64
2024/01/11 03:05:30;;;;;;;;;62.67;48.00;;;;;1.22;56.21;102433.56;4979315;28;46073;-65
2024/01/11 03:07:55;;;;;;;;;65.67;48.67;;;;;1.17;56.58;102441.00;4978674;28;45502;-61
2024/01/11 03:10:21;;;;;;;;;61.67;47.00;;;;;1.17;57.10;102430.66;4978965;28;45442;-62
2024/01/11 03:12:49;;;;;;;;;64.67;49.00;;;;;1.06;57.15;102414.44;4979410;28;45380;-61
2024/01/11 03:15:15;;;;;;;;;63.67;49.67;;;;;1.14;56.35;102435.63;4978985;28;46241;-61
2024/01/11 03:17:41;;;;;;;;;63.33;47.67;;;;;1.20;56.53;102438.59;4979226;28;45455;-60
2024/01/11 03:20:08;;;;;;;;;60.33;49.00;;;;;1.24;55.84;102431.97;4979006;28;45435;-62
2024/01/11 03:22:33;;;;;;;;;67.33;48.00;;;;;1.21;56.06;102429.16;4994607;28;45429;-62
2024/01/11 03:24:59;;;;;;;;;62.67;49.00;;;;;1.29;56.19;102430.59;4977684;28;46038;-61
2024/01/11 03:27:25;;;;;;;;;66.67;50.00;;;;;1.35;56.43;102437.84;4979406;28;45426;-61
2024/01/11 03:29:51;;;;;;;;;64.67;49.00;;;;;1.31;56.74;102441.03;4978671;28;45510;-61
2024/01/11 03:32:16;;;;;;;;;69.33;50.33;;;;;1.24;56.31;102430.28;4980047;28;45498;-61
2024/01/11 03:34:42;;;;;;;;;65.67;47.33;;;;;1.26;56.41;102420.06;4978611;28;46121;-64
2024/01/11 03:37:07;;;;;;;;;65.33;48.00;;;;;1.22;55.74;102425.81;4979132;28;45521;-62
2024/01/11 03:39:34;;;;;;;;;68.67;51.00;;;;;1.19;57.05;102436.84;4979726;28;45467;-61
2024/01/11 03:42:00;;;;;;;;;68.33;49.00;;;;;1.13;56.73;102436.41;4979165;28;45888;-59
2024/01/11 03:44:25;;;;;;;;;60.33;45.00;;;;;1.16;56.45;102438.28;4980074;28;46508;-67
2024/01/11 03:46:51;;;;;;;;;64.00;50.33;;;;;1.24;56.11;102445.78;4993750;28;45484;-62
2024/01/11 03:49:17;;;;;;;;;60.33;45.67;;;;;1.13;56.63;102415.75;4977711;28;45302;-64
2024/01/11 03:51:44;;;;;;;;;67.67;48.67;;;;;1.25;56.44;102436.34;4977548;28;45974;-64
2024/01/11 03:54:10;;;;;;;;;57.00;44.33;;;;;1.34;56.46;102454.13;4978274;28;46628;-62
2024/01/11 03:56:39;;;;;;;;;63.67;46.33;;;;;1.35;56.06;102446.47;4993470;28;45453;-66
2024/01/11 03:59:08;;;;;;;;;64.00;48.00;;;;;1.40;56.27;102449.38;4993737;28;45431;-67
2024/01/11 04:01:38;;;;;;;;;57.33;44.67;;;;;1.38;56.08;102440.66;4978645;28;45525;-65
2024/01/11 04:04:03;;;;;;;;;62.00;47.00;;;;;1.40;56.30;102442.53;4978496;28;46069;-68
2024/01/11 04:06:29;;;;;;;;;64.33;44.67;;;;;1.43;55.68;102441.84;4978382;28;45883;-61
2024/01/11 04:08:54;;;;;;;;;61.33;45.00;;;;;1.43;56.66;102447.91;4978147;28;45285;-60
2024/01/11 04:11:20;;;;;;;;;64.33;46.00;;;;;1.42;55.98;102456.41;4978318;28;45453;-65
2024/01/11 04:13:45;;;;;;;;;62.33;47.00;;;;;1.29;55.99;102424.53;4977971;28;45596;-70
2024/01/11 04:16:11;;;;;;;;;62.67;46.67;;;;;1.39;55.79;102445.00;4977896;28;45469;-64
2024/01/11 04:18:36;;;;;;;;;65.00;47.00;;;;;1.46;56.57;102447.22;4977413;28;45451;-59
2024/01/11 04:21:02;;;;;;;;;61.67;48.00;;;;;1.46;55.78;102445.50;4974976;28;45455;-60
2024/01/11 04:23:28;;;;;;;;;62.67;47.67;;;;;1.47;56.35;102459.31;4975691;28;46807;-63
2024/01/11 04:25:53;;;;;;;;;66.33;48.00;;;;;1.40;56.15;102457.09;4978177;28;45401;-64
2024/01/11 04:28:19;;;;;;;;;63.33;48.67;;;;;1.36;56.38;102456.03;4979559;28;45420;-62
2024/01/11 04:30:44;;;;;;;;;65.67;50.00;;;;;1.42;56.26;102465.84;4979668;28;45335;-62
2024/01/11 04:33:10;;;;;;;;;66.67;49.00;;;;;1.31;55.76;102451.38;4979522;28;45468;-59
2024/01/11 04:35:36;;;;;;;;;62.67;47.00;;;;;1.35;55.84;102463.66;4978165;28;45482;-61
2024/01/11 04:38:02;;;;;;;;;63.33;47.67;;;;;1.42;56.73;102479.66;4976768;28;45569;-61
2024/01/11 04:40:28;;;;;;;;;62.33;46.67;;;;;1.31;55.80;102461.69;4977929;28;45541;-61
2024/01/11 04:42:53;;;;;;;;;64.33;48.33;;;;;1.42;55.91;102484.81;4977588;28;46330;-61
2024/01/11 04:45:19;;;;;;;;;63.00;46.00;;;;;1.31;55.99;102461.69;4977647;28;45612;-62
2024/01/11 04:47:44;;;;;;;;;63.67;48.00;;;;;1.30;55.73;102458.19;4992701;28;45451;-62
2024/01/11 04:50:10;;;;;;;;;62.67;47.33;;;;;1.36;55.52;102468.94;4993017;28;45467;-61
2024/01/11 04:52:35;;;;;;;;;61.33;45.67;;;;;1.36;55.72;102468.06;4977031;28;45981;-61
2024/01/11 04:55:01;;;;;;;;;63.33;48.00;;;;;1.33;56.14;102460.06;4976388;28;45391;-60
2024/01/11 04:57:27;;;;;;;;;61.33;45.67;;;;;1.37;55.43;102467.25;4976386;28;45267;-61
2024/01/11 04:59:53;;;;;;;;;61.67;47.33;;;;;1.38;55.77;102466.47;4977929;28;45536;-61
2024/01/11 05:02:22;;;;;;;;;59.33;44.33;;;;;1.26;56.33;102459.69;4976227;28;45465;-59
2024/01/11 05:04:48;;;;;;;;;60.33;44.00;;;;;1.34;56.08;102472.22;4977579;28;45453;-61
2024/01/11 05:07:14;;;;;;;;;66.67;47.00;;;;;1.37;56.08;102483.63;4977215;28;45496;-60
2024/01/11 05:09:39;;;;;;;;;67.00;46.67;;;;;1.34;55.65;102478.25;4976189;28;45553;-61
2024/01/11 05:12:05;;;;;;;;;61.67;46.00;;;;;1.39;56.83;102491.47;4977216;28;45480;-62
2024/01/11 05:14:31;;;;;;;;;61.33;47.67;;;;;1.36;55.82;102481.84;4976169;28;45460;-61
2024/01/11 05:16:57;;;;;;;;;55.67;40.00;;;;;1.31;56.08;102472.00;4976154;28;45470;-62
2024/01/11 05:19:23;;;;;;;;;61.33;44.00;;;;;1.30;56.48;102476.25;4977489;28;45348;-60
2024/01/11 05:21:48;;;;;;;;;54.00;45.00;;;;;1.34;55.59;102477.38;4976936;28;45534;-61
2024/01/11 05:24:14;;;;;;;;;63.33;47.00;;;;;1.34;56.25;102486.00;4977155;28;45542;-63
2024/01/11 05:26:39;;;;;;;;;65.33;47.33;;;;;1.29;56.47;102473.59;4978748;28;45513;-59
2024/01/11 05:29:05;;;;;;;;;63.67;45.33;;;;;1.36;55.91;102486.13;4977829;28;45594;-60
2024/01/11 05:31:31;;;;;;;;;62.00;47.00;;;;;1.28;56.28;102470.09;4978205;28;45332;-61
2024/01/11 05:33:57;;;;;;;;;66.67;48.00;;;;;1.35;56.13;102490.38;4976381;28;45421;-61
2024/01/11 05:36:23;;;;;;;;;69.67;52.00;;;;;1.29;55.97;102478.75;4977300;28;45316;-61
2024/01/11 05:38:51;;;;;;;;;64.33;48.33;;;;;1.32;56.41;102490.16;4975976;28;45384;-60
2024/01/11 05:41:17;;;;;;;;;70.00;48.33;;;;;1.28;56.02;102483.00;4975462;28;46826;-61
2024/01/11 05:43:43;;;;;;;;;60.67;45.33;;;;;1.27;55.66;102481.22;4975556;28;45702;-61
2024/01/11 05:46:09;;;;;;;;;63.00;45.67;;;;;1.23;56.35;102480.13;4977402;28;45467;-61
2024/01/11 05:48:34;;;;;;;;;61.67;44.67;;;;;1.34;56.88;102498.03;4977990;28;45431;-62
2024/01/11 05:51:00;;;;;;;;;59.33;46.00;;;;;1.34;56.02;102496.34;4975510;28;46876;-60
2024/01/11 05:53:27;;;;;;;;;54.00;42.00;;;;;1.35;56.18;102507.53;4976742;28;45386;-62
2024/01/11 05:55:53;;;;;;;;;63.67;47.67;;;;;1.29;56.40;102492.56;4976676;28;45442;-61
2024/01/11 05:58:19;;;;;;;;;64.33;49.33;;;;;1.32;55.46;102499.59;4976919;28;45545;-61
2024/01/11 06:00:45;;;;;;;;;63.67;47.00;;;;;1.35;56.17;102520.47;4975149;28;46311;-60
2024/01/11 06:03:15;;;;;;;;;65.67;48.00;;;;;1.31;56.22;102510.75;4976982;28;45381;-61
2024/01/11 06:05:40;;;;;;;;;62.67;46.00;;;;;1.34;56.21;102514.41;4976671;28;45830;-62
2024/01/11 06:08:06;;;;;;;;;62.67;47.33;;;;;1.32;56.36;102517.69;4976190;28;45439;-64
2024/01/11 06:10:32;;;;;;;;;65.00;48.33;;;;;1.36;56.68;102524.84;4978016;28;46418;-66
2024/01/11 06:12:57;;;;;;;;;53.67;44.00;;;;;1.35;56.10;102523.94;4978006;28;45448;-64
2024/01/11 06:15:23;;;;;;;;;61.33;49.33;;;;;1.36;56.28;102530.91;4978265;28;45320;-63
2024/01/11 06:17:49;;;;;;;;;60.33;45.67;;;;;1.25;57.22;102525.00;4977366;28;45423;-60
2024/01/11 06:20:14;;;;;;;;;63.67;49.33;;;;;1.29;56.75;102533.84;4976681;28;45451;-61
2024/01/11 06:22:40;;;;;;;;;59.33;44.67;;;;;1.30;56.77;102542.50;4980592;28;45347;-60
2024/01/11 06:25:06;;;;;;;;;67.33;50.33;;;;;1.23;56.29;102534.34;4996387;28;45478;-61
2024/01/11 06:27:31;;;;;;;;;66.00;48.67;;;;;1.33;56.43;102555.59;4979047;28;45578;-62
2024/01/11 06:29:57;;;;;;;;;69.67;51.00;;;;;1.27;56.45;102543.19;4980360;28;45660;-61
2024/01/11 06:32:22;;;;;;;;;59.00;44.00;;;;;1.24;56.67;102535.22;4980615;28;45417;-61
2024/01/11 06:34:48;;;;;;;;;63.00;47.33;;;;;1.34;56.99;102553.13;4979920;28;45444;-61
2024/01/11 06:37:14;;;;;;;;;63.33;47.33;;;;;1.32;56.61;102540.91;4979724;28;45709;-61
2024/01/11 06:39:40;;;;;;;;;65.33;48.00;;;;;1.38;56.38;102549.09;4981121;28;45463;-60
2024/01/11 06:42:05;;;;;;;;;61.00;46.67;;;;;1.30;56.83;102538.22;4978277;28;45647;-61
2024/01/11 06:44:31;;;;;;;;;61.33;45.00;;;;;1.39;56.47;102576.69;4979810;28;45539;-59
2024/01/11 06:47:01;;;;;;;;;58.67;45.00;;;;;1.24;57.21;102551.59;4978540;28;45421;-61
2024/01/11 06:49:27;;;;;;;;;57.33;45.67;;;;;1.25;56.51;102558.53;4979370;28;46114;-60
2024/01/11 06:51:53;;;;;;;;;62.67;47.00;;;;;1.05;57.33;102535.66;4978169;28;45261;-61
2024/01/11 06:54:18;;;;;;;;;67.33;47.33;;;;;1.23;56.65;102569.56;4979224;28;45252;-60
2024/01/11 06:56:45;;;;;;;;;65.33;49.00;;;;;1.29;56.56;102593.22;4979717;28;45411;-59
2024/01/11 06:59:13;;;;;;;;;65.33;48.67;;;;;1.37;56.34;102597.22;4979197;28;46014;-61
2024/01/11 07:01:42;;;;;;;;;58.67;44.33;;;;;1.22;57.34;102586.75;4979966;28;45280;-61
2024/01/11 07:04:08;;;;;;;;;57.00;44.67;;;;;1.32;57.12;102587.38;4978712;28;45254;-61
2024/01/11 07:06:33;;;;;;;;;57.33;45.33;;;;;1.39;57.16;102613.72;4979554;28;45463;-60
2024/01/11 07:08:59;;;;;;;;;63.67;46.67;;;;;1.38;56.65;102605.88;4980516;28;46275;-63
2024/01/11 07:11:25;;;;;;;;;59.33;46.00;;;;;1.40;56.81;102604.28;4979258;28;45479;-61
2024/01/11 07:13:50;;;;;;;;;61.33;47.33;;;;;1.29;57.15;102588.06;4977781;28;45447;-61
2024/01/11 07:16:16;;;;;;;;;67.33;47.67;;;;;1.39;57.27;102607.66;4979151;28;45505;-64
2024/01/11 07:18:42;;;;;;;;;64.33;48.00;;;;;1.31;56.70;102601.97;4977716;28;45532;-62
2024/01/11 07:21:07;;;;;;;;;60.00;45.67;;;;;1.36;57.87;102607.47;4980130;28;45522;-63
2024/01/11 07:23:33;;;;;;;;;60.33;45.33;;;;;1.39;57.36;102616.31;4978955;28;45461;-61
2024/01/11 07:25:58;;;;;;;;;59.67;47.00;;;;;1.38;57.01;102613.63;4979398;28;45495;-64
2024/01/11 07:28:25;;;;;;;;;60.67;45.67;;;;;1.39;56.80;102620.56;4979050;28;45640;-64
2024/01/11 07:30:53;;;;;;;;;58.33;46.33;;;;;1.20;56.94;102590.00;4979051;28;45470;-65
2024/01/11 07:33:20;;;;;;;;;65.00;47.33;;;;;1.30;57.53;102618.25;4977846;28;45863;-65
2024/01/11 07:35:46;;;;;;;;;58.00;44.00;;;;;1.39;57.31;102636.06;4978856;28;46126;-66
2024/01/11 07:38:11;;;;;;;;;65.00;47.00;;;;;1.18;57.55;102605.38;4980015;28;45510;-65
2024/01/11 07:40:37;;;;;;;;;64.67;48.67;;;;;1.39;57.10;102631.78;4978916;28;45442;-62
2024/01/11 07:43:04;;;;;;;;;61.67;45.33;;;;;1.36;57.19;102625.53;4979586;28;45400;-64
2024/01/11 07:45:30;;;;;;;;;57.00;41.00;;;;;1.40;56.95;102627.53;4978339;28;45544;-62
2024/01/11 07:47:56;;;;;;;;;63.67;47.67;;;;;1.41;56.98;102626.75;4977052;28;46847;-69
2024/01/11 07:50:25;;;;;;;;;65.33;48.00;;;;;1.42;57.64;102624.25;4978177;28;45362;-62
2024/01/11 07:52:50;;;;;;;;;71.00;49.33;;;;;1.36;57.26;102623.84;4977223;28;45644;-62
2024/01/11 07:55:16;;;;;;;;;67.67;50.33;;;;;1.45;56.77;102628.75;4978540;28;45467;-63
2024/01/11 07:57:42;;;;;;;;;66.67;47.00;;;;;1.47;56.87;102635.81;4977472;28;46952;-62
2024/01/11 08:00:09;;;;;;;;;53.67;41.00;;;;;1.42;57.50;102636.28;4978381;28;45500;-62
2024/01/11 08:02:35;;;;;;;;;67.67;49.00;;;;;1.48;56.96;102653.09;4978476;28;45436;-64
2024/01/11 08:05:01;;;;;;;;;68.00;50.33;;;;;1.48;57.32;102652.22;4977153;28;45289;-63
2024/01/11 08:07:27;;;;;;;;;66.00;49.00;;;;;1.42;57.42;102646.59;4978372;28;45853;-61
2024/01/11 08:09:53;;;;;;;;;66.00;50.00;;;;;1.49;56.74;102661.72;4976461;28;45366;-61
2024/01/11 08:12:19;;;;;;;;;67.33;49.33;;;;;1.46;57.83;102648.63;4978156;28;46458;-62
2024/01/11 08:14:46;;;;;;;;;68.00;50.00;;;;;1.46;57.29;102652.09;4978293;28;45536;-62
2024/01/11 08:17:13;;;;;;;;;66.00;49.00;;;;;1.63;56.89;102653.25;4978609;28;46221;-61
2024/01/11 08:19:39;;;;;;;;;70.33;52.33;;;;;1.96;56.66;102652.88;4977758;28;45568;-61
2024/01/11 08:22:08;;;;;;;;;66.00;49.33;;;;;2.35;55.84;102654.66;4978611;28;45366;-61
2024/01/11 08:24:35;;;;;;;;;69.33;51.00;;;;;2.85;55.11;102626.00;4978508;28;45375;-60
2024/01/11 08:27:05;;;;;;;;;66.67;50.00;;;;;3.58;53.85;102644.31;4959493;28;47519;-61
2024/01/11 08:29:31;;;;;;;;;65.67;48.33;;;;;4.36;53.13;102627.31;4964412;28;45432;-61
2024/01/11 08:31:57;;;;;;;;;63.67;49.33;;;;;5.44;51.12;102628.97;4975880;28;45292;-60
2024/01/11 08:34:26;;;;;;;;;66.00;49.33;;;;;6.34;48.92;102633.66;4978438;28;45333;-61
2024/01/11 08:36:52;;;;;;;;;69.00;52.33;;;;;7.34;47.04;102630.56;4978287;28;45395;-61
2024/01/11 08:39:17;;;;;;;;;63.50;49.00;;;;;8.39;45.50;102633.38;4977474;28;45403;-62
2024/01/11 08:41:43;;;;;;;;;65.00;46.25;;;;;9.32;43.60;102593.47;4976301;28;45552;-60
2024/01/11 08:44:09;;;;;;;;;60.50;45.50;;;;;10.44;41.80;102613.09;4977358;28;46271;-64
2024/01/11 08:46:35;;;;;;;;;58.25;45.00;;;;;11.51;40.17;102623.34;4977819;28;46225;-62
2024/01/11 08:49:03;;;;;;;;;61.25;46.25;;;;;12.45;38.09;102620.56;4977513;28;45604;-62
2024/01/11 08:51:29;;;;;;;;;1.75;0.00;;;;;13.38;37.23;102616.53;4977935;28;45467;-61
2024/01/11 08:53:55;;;;;;;;;57.50;44.00;;;;;14.23;36.19;102620.75;4977617;28;45609;-63
2024/01/11 08:56:21;;;;;;;;;57.25;43.25;;;;;15.07;34.91;102608.88;4977489;28;45665;-61
2024/01/11 08:58:48;;;;;;;;;58.50;44.50;;;;;15.75;32.90;102618.50;4977862;28;45560;-62
2024/01/11 09:01:14;;;;;;;;;60.00;44.00;;;;;16.52;32.05;102624.50;4976254;28;45799;-64
2024/01/11 09:03:40;;;;;;;;;54.50;42.75;;;;;17.21;31.03;102609.06;4977162;28;45273;-61
2024/01/11 09:06:06;;;;;;;;;52.50;41.50;;;;;17.94;30.17;102610.19;4977365;28;45458;-62
2024/01/11 09:08:32;;;;;;;;;53.75;42.00;;;;;18.53;28.96;102587.16;4976789;28;45455;-62
2024/01/11 09:10:59;;;;;;;;;50.50;38.25;;;;;19.13;28.35;102587.91;4977757;28;45351;-64
2024/01/11 09:13:27;;;;;;;;;56.50;42.25;;;;;19.91;26.95;102616.75;4977480;28;45743;-62
2024/01/11 09:15:54;;;;;;;;;56.00;43.50;;;;;20.48;26.36;102607.44;4976919;28;46258;-62
2024/01/11 09:18:20;;;;;;;;;57.75;42.00;;;;;21.02;25.17;102623.72;4977319;28;45764;-61
2024/01/11 09:20:46;;;;;;;;;52.50;42.75;;;;;21.50;24.61;102617.84;4977543;28;45359;-62
2024/01/11 09:23:11;;;;;;;;;56.25;42.00;;;;;22.01;24.26;102612.63;4977678;28;45430;-63
2024/01/11 09:25:37;;;;;;;;;59.00;45.50;;;;;22.50;23.07;102613.63;4977246;28;45423;-62
2024/01/11 09:28:04;;;;;;;;;48.75;38.00;;;;;22.87;22.34;102616.47;4977962;28;45521;-62
2024/01/11 09:30:30;;;;;;;;;53.25;42.50;;;;;23.18;21.97;102600.75;4976787;28;45555;-62
2024/01/11 09:32:56;;;;;;;;;57.00;45.00;;;;;23.40;21.42;102589.56;4976183;28;45526;-63
2024/01/11 09:35:23;;;;;;;;;57.50;44.50;;;;;23.43;21.14;102608.22;4978657;28;45842;-64
2024/01/11 09:37:52;;;;;;;;;50.25;40.00;;;;;23.52;20.71;102615.16;4977601;28;45449;-63
2024/01/11 09:40:19;;;;;;;;;57.75;45.00;;;;;23.76;20.58;102608.41;4978222;28;45562;-61
2024/01/11 09:42:45;;;;;;;;;59.75;45.00;;;;;24.15;19.92;102603.84;4977134;28;45521;-65
2024/01/11 09:45:15;;;;;;;;;53.00;40.33;;;;;24.43;19.80;102609.38;4976479;28;45401;-62
2024/01/11 09:47:41;;;;;;;;;56.75;43.25;;;;;24.78;19.05;102609.38;4977303;28;45963;-62
2024/01/11 09:50:08;;;;;;;;;58.00;42.25;;;;;25.04;18.88;102601.47;4991825;28;45585;-64
2024/01/11 09:52:33;;;;;;;;;56.00;44.33;;;;;25.51;18.63;102601.00;4976406;28;45643;-62
2024/01/11 09:55:00;;;;;;;;;52.00;43.00;;;;;25.90;18.39;102598.84;4976114;28;45729;-66
2024/01/11 09:57:30;;;;;;;;;49.33;41.33;;;;;26.34;18.54;102603.63;4977255;28;45331;-63
2024/01/11 09:59:56;;;;;;;;;56.00;43.33;;;;;26.82;17.59;102608.25;4978069;28;45312;-64
2024/01/11 10:02:29;;;;;;;;;55.33;43.67;;;;;27.09;17.24;102587.50;4989808;28;45561;-61
2024/01/11 10:04:56;;;;;;;;;51.67;41.67;;;;;27.42;16.97;102579.94;4975875;28;45999;-63
2024/01/11 10:07:24;;;;;;;;;54.00;42.67;;;;;27.79;16.73;102581.16;4976928;28;45593;-64
2024/01/11 10:09:50;;;;;;;;;52.67;40.67;;;;;28.19;16.48;102597.47;4977184;28;45463;-62
2024/01/11 10:12:23;;;;;;;;;54.33;44.00;;;;;28.47;16.16;102597.19;4977115;28;45741;-65
2024/01/11 10:14:50;;;;;;;;;54.00;43.00;;;;;28.72;15.84;102587.06;4957948;28;47781;-68
2024/01/11 10:17:15;;;;;;;;;58.33;45.67;;;;;28.87;15.47;102598.09;4970482;28;45480;-63
2024/01/11 10:19:41;;;;;;;;;55.00;44.00;;;;;28.89;15.44;102594.38;4976493;28;46189;-65
2024/01/11 10:22:06;;;;;;;;;54.67;43.33;;;;;29.20;15.40;102600.19;4977278;28;45364;-62
2024/01/11 10:24:32;;;;;;;;;56.67;43.67;;;;;29.26;14.99;102564.81;4977739;28;46653;-64
2024/01/11 10:27:03;;;;;;;;;58.00;44.00;;;;;29.64;14.53;102578.25;4977128;28;45453;-64
2024/01/11 10:29:38;;;;;;;;;57.33;44.00;;;;;29.83;14.44;102573.75;4977096;28;45486;-62
2024/01/11 10:32:04;;;;;;;;;61.33;46.33;;;;;30.09;14.46;102574.22;4976027;28;45714;-62
2024/01/11 10:34:34;;;;;;;;;57.00;45.33;;;;;29.48;13.86;102572.75;4975991;28;46182;-64
2024/01/11 10:37:00;;;;;;;;;55.33;44.33;;;;;29.09;13.71;102538.66;4975443;28;45517;-63
2024/01/11 10:39:27;;;;;;;;;56.67;44.67;;;;;29.53;14.31;102574.28;4976999;28;45561;-64
2024/01/11 10:42:05;;;;;;;;;53.67;42.67;;;;;29.91;13.82;102573.34;4992472;28;45574;-61
2024/01/11 10:44:33;;;;;;;;;52.33;39.33;;;;;30.37;14.08;102573.69;4976448;28;45779;-63
2024/01/11 10:47:03;;;;;;;;;57.00;45.00;;;;;30.76;13.87;102567.97;4976311;28;45443;-72
2024/01/11 10:49:30;;;;;;;;;55.00;43.33;;;;;31.16;13.34;102567.66;4971447;28;45484;-62
2024/01/11 10:52:06;;;;;;;;;55.67;44.33;;;;;31.40;13.16;102581.66;4976337;28;45644;-63
2024/01/11 10:54:34;;;;;;;;;61.67;50.33;;;;;30.97;12.69;102568.66;4991213;28;47718;-62
2024/01/11 10:57:00;;;;;;;;;57.33;44.67;;;;;30.57;13.02;102564.53;4977048;28;45335;-62
2024/01/11 10:59:27;;;;;;;;;61.67;46.33;;;;;30.80;12.97;102583.09;4977931;28;45405;-62
2024/01/11 11:01:56;;;;;;;;;53.67;44.33;;;;;30.94;12.93;102576.94;4977618;28;45280;-62
2024/01/11 11:04:27;;;;;;;;;56.67;45.00;;;;;31.21;13.08;102596.19;4976023;28;45423;-74
2024/01/11 11:06:57;;;;;;;;;57.33;44.00;;;;;31.46;13.10;102586.69;4976318;28;45454;-63
2024/01/11 11:09:22;;;;;;;;;56.33;44.67;;;;;31.67;12.63;102581.88;4980021;28;45313;-65